Latest Weather Observations for Warwick

IDQ60901

Issued at 11:01 am EST Sunday 29 March 2015 (issued every 10 minutes, with the page automatically refreshed every 10 minutes)

About weather observations | Map of Brisbane area stations | Latest observations for Brisbane area | Other Formats
Station Details ID: 041525 Name: WARWICK Lat: -28.21 Lon: 152.10 Height: 475.4 m
Data from the previous 72 hours. | See also: Recent months at Warwick
Date/Time
EST
Tmp

°C
App
Tmp
°C
Dew
Point
°C
Rel
Hum
%
Delta-T

°C
Wind Press
QNH
hPa
Press
MSL
hPa
Rain
since
9 am
mm
Dir
 
Spd
km/h
Gust
km/h
Spd
kts
Gust
kts
29/10:30am 24.7 24.5 14.8 54 6.0 E 9 15 5 8 1024.2 1022.0 0.0
29/10:00am 24.1 24.2 15.6 59 5.2 ESE 9 19 5 10 1024.5 1022.3 0.0
29/09:30am 22.9 23.7 15.9 64 4.3 SE 6 11 3 6 1024.9 1022.8 0.0
29/09:00am 21.7 22.6 16.0 70 3.5 ENE 6 9 3 5 1024.8 1022.7 0.0
29/08:30am 21.3 23.2 16.6 74 2.9 ESE 2 7 1 4 1024.7 1022.6 0.0
29/08:00am 20.0 21.5 16.6 81 2.1 SE 4 7 2 4 1024.3 1022.1 0.0
29/07:30am 18.7 20.9 16.4 86 1.4 CALM 0 0 0 0 1023.8 1021.7 0.0
29/07:00am 18.7 20.9 16.4 86 1.4 CALM 0 0 0 0 1023.3 1021.2 0.0
29/06:00am 17.5 19.6 16.3 93 0.7 CALM 0 0 0 0 1022.6 1020.4 0.0
29/05:30am 18.0 20.0 16.0 88 1.2 CALM 0 0 0 0 1022.3 1020.1 0.0
29/05:00am 17.8 19.8 16.0 89 1.1 CALM 0 0 0 0 1022.0 1019.8 0.0
29/04:30am 17.5 19.6 16.3 93 0.7 CALM 0 0 0 0 1021.7 1019.5 0.0
29/04:00am 17.8 19.8 16.0 89 1.1 CALM 0 0 0 0 1021.3 1019.2 0.0
29/03:30am 17.3 19.3 16.1 93 0.7 CALM 0 0 0 0 1021.4 1019.3 0.0
29/03:00am 17.2 19.2 16.0 93 0.7 CALM 0 0 0 0 1021.3 1019.2 0.0
29/02:30am 16.5 18.2 15.3 93 0.7 CALM 0 0 0 0 1021.3 1019.2 0.0
29/02:00am 16.1 17.9 15.4 96 0.4 CALM 0 0 0 0 1021.4 1019.3 0.0
29/01:30am 16.1 17.8 15.1 94 0.6 CALM 0 0 0 0 1021.8 1019.6 0.0
29/01:00am 16.7 18.4 15.2 91 0.9 CALM 0 7 0 4 1022.0 1019.8 0.0
29/12:30am 16.8 18.6 15.6 93 0.7 CALM 0 0 0 0 1022.2 1020.0 0.0
 
Date/Time
EST
Tmp

°C
App
Tmp
°C
Dew
Point
°C
Rel
Hum
%
Delta-T

°C
Wind Press
QNH
hPa
Press
MSL
hPa
Rain
since
9 am
mm
Dir
 
Spd
km/h
Gust
km/h
Spd
kts
Gust
kts
28/11:30pm 18.4 20.3 15.7 84 1.6 CALM 0 0 0 0 1022.1 1019.9 0.0
28/11:00pm 18.4 18.5 15.6 84 1.7 NE 9 11 5 6 1022.3 1020.1 0.0
28/10:30pm 19.2 18.9 15.5 79 2.2 ENE 11 17 6 9 1022.4 1020.2 0.0
28/10:00pm 19.9 19.7 15.6 76 2.6 NE 11 15 6 8 1022.8 1020.7 0.0
28/09:30pm 20.0 20.2 15.7 76 2.6 NE 9 11 5 6 1022.7 1020.5 0.0
28/09:00pm 19.9 19.3 15.6 76 2.6 ENE 13 19 7 10 1022.4 1020.2 0.0
28/08:00pm 21.4 22.0 16.7 74 2.9 E 9 13 5 7 1021.9 1019.7 0.0
28/07:30pm 21.8 21.4 16.3 71 3.4 NE 13 22 7 12 1021.3 1019.2 0.0
28/07:00pm 22.1 21.1 16.6 71 3.4 NE 17 22 9 12 1020.6 1018.4 0.0
28/06:30pm 22.4 21.3 17.3 73 3.2 NE 19 24 10 13 1020.1 1017.9 0.0
28/06:00pm 23.5 24.0 18.3 72 3.3 ENE 13 20 7 11 1019.5 1017.3 0.0
28/05:30pm 25.2 24.9 18.2 65 4.5 ENE 17 26 9 14 1019.0 1016.9 0.0
28/05:00pm 27.7 28.5 13.6 42 8.5 ESE 2 9 1 5 1018.8 1016.6 0.0
28/04:30pm 28.1 28.5 12.4 37 9.3 NNE 2 7 1 4 1018.8 1016.6 0.0
28/04:00pm 28.5 29.4 12.8 38 9.4 CALM 0 0 0 0 1018.7 1016.5 0.0
28/03:30pm 27.8 28.4 13.1 40 8.8 NNE 2 9 1 5 1018.8 1016.6 0.0
28/03:00pm 27.8 27.9 12.7 39 9.0 SSW 4 7 2 4 1019.0 1016.9 0.0
28/02:30pm 28.1 27.1 12.2 37 9.4 WNW 9 15 5 8 1019.0 1016.9 0.0
28/02:00pm 28.3 27.3 12.3 37 9.5 W 9 17 5 9 1019.1 1017.0 0.0
28/01:30pm 28.2 26.3 11.9 36 9.6 W 13 24 7 13 1019.7 1017.5 0.0
28/01:00pm 27.5 26.4 12.0 38 9.1 WNW 9 17 5 9 1020.2 1018.0 0.0
28/12:30pm 27.0 26.5 12.7 41 8.5 NNW 7 17 4 9 1020.6 1018.4 0.0
28/12:00pm 26.3 25.9 13.0 43 7.9 WNW 7 15 4 8 1021.2 1019.1 0.0
28/11:30am 26.1 25.3 14.0 47 7.3 NNW 11 19 6 10 1021.5 1019.4 0.0
28/11:00am 25.0 25.5 15.6 56 5.8 NNE 7 17 4 9 1022.2 1020.0 0.0
28/10:30am 24.3 25.1 15.9 59 5.2 NE 6 13 3 7 1022.5 1020.3 0.0
28/10:00am 23.6 25.3 17.1 67 4.1 NNE 4 11 2 6 1022.6 1020.4 0.0
28/09:30am 22.6 24.9 17.7 74 3.1 S 2 9 1 5 1022.8 1020.7 0.0
28/09:00am 21.0 23.5 18.2 84 1.8 ESE 2 9 1 5 1022.9 1020.8 0.0
28/08:30am 19.4 22.0 17.6 89 1.1 CALM 0 0 0 0 1022.7 1020.5 0.0
28/08:00am 18.0 20.0 16.9 93 0.7 E 2 9 1 5 1022.5 1020.3 0.0
28/07:30am 16.7 18.5 16.5 99 0.1 NE 2 9 1 5 1022.2 1020.0 0.0
28/07:00am 16.4 17.7 16.2 99 0.1 NNE 4 7 2 4 1021.8 1019.6 0.0
28/06:30am 16.3 17.2 16.1 99 0.1 ENE 6 7 3 4 1021.3 1019.2 0.0
28/06:00am 16.1 18.1 15.9 99 0.1 CALM 0 0 0 0 1020.8 1018.6 0.0
28/05:30am 16.7 17.7 16.4 98 0.2 NE 6 9 3 5 1020.5 1018.3 0.0
28/05:00am 16.6 17.4 16.3 98 0.2 NE 7 9 4 5 1020.4 1018.2 0.0
28/04:30am 14.7 16.0 14.2 97 0.3 CALM 0 0 0 0 1020.2 1018.0 0.0
28/04:00am 15.0 16.4 14.3 96 0.4 CALM 0 0 0 0 1019.9 1017.7 0.0
28/03:30am 14.6 15.8 13.9 96 0.4 CALM 0 0 0 0 1019.8 1017.6 0.0
28/03:00am 14.0 14.8 13.6 97 0.2 NNE 2 6 1 3 1019.7 1017.5 0.0
28/02:30am 13.9 14.6 13.4 97 0.3 NE 2 7 1 4 1019.9 1017.7 0.0
28/02:00am 14.2 15.2 13.3 94 0.5 CALM 0 0 0 0 1019.9 1017.7 0.0
28/01:30am 15.4 17.0 14.9 97 0.3 CALM 0 0 0 0 1019.9 1017.7 0.0
28/01:00am 16.6 18.6 16.1 97 0.3 CALM 0 0 0 0 1020.1 1017.9 0.0
28/12:30am 16.9 17.8 16.2 96 0.4 NNE 6 7 3 4 1020.2 1018.0 0.0
28/12:00am 16.9 18.3 16.4 97 0.3 NNE 4 7 2 4 1020.4 1018.2 0.0
 
Date/Time
EST
Tmp

°C
App
Tmp
°C
Dew
Point
°C
Rel
Hum
%
Delta-T

°C
Wind Press
QNH
hPa
Press
MSL
hPa
Rain
since
9 am
mm
Dir
 
Spd
km/h
Gust
km/h
Spd
kts
Gust
kts
27/11:30pm 17.3 19.5 16.5 95 0.5 CALM 0 0 0 0 1020.6 1018.4 0.0
27/11:00pm 17.9 20.3 17.1 95 0.5 CALM 0 0 0 0 1020.6 1018.4 0.0
27/10:30pm 18.0 20.5 17.2 95 0.5 CALM 0 0 0 0 1020.9 1018.8 0.0
27/10:00pm 18.5 21.1 17.5 94 0.6 CALM 0 0 0 0 1021.0 1018.9 0.0
27/09:30pm 18.7 21.2 17.2 91 0.9 CALM 0 0 0 0 1020.9 1018.8 0.0
27/09:00pm 19.0 21.6 17.4 90 1.0 CALM 0 0 0 0 1020.9 1018.8 0.0
27/08:30pm 19.5 21.7 16.6 83 1.8 CALM 0 0 0 0 1020.7 1018.5 0.0
27/08:00pm 19.9 21.4 14.7 72 3.1 CALM 0 0 0 0 1020.4 1018.2 0.0
27/07:30pm 19.8 19.2 8.8 49 5.9 WNW 2 7 1 4 1020.0 1017.8 0.0
27/07:00pm 21.3 19.4 9.2 46 6.6 WNW 9 11 5 6 1019.3 1017.2 0.0
27/06:30pm 21.9 20.1 8.1 41 7.4 WNW 7 11 4 6 1018.8 1016.6 0.0
27/06:00pm 22.4 21.4 10.2 46 6.8 W 6 7 3 4 1018.6 1016.4 0.0
27/05:30pm 26.1 22.8 6.3 28 10.5 SW 13 17 7 9 1018.3 1016.1 0.0
27/05:00pm 27.6 24.3 6.3 26 11.4 SW 13 19 7 10 1018.1 1015.9 0.0
27/04:30pm 28.5 24.8 4.3 21 12.6 WSW 13 19 7 10 1017.8 1015.6 0.0
27/04:00pm 28.6 25.2 5.7 23 12.2 W 13 20 7 11 1017.8 1015.6 0.0
27/03:30pm 28.7 24.9 7.4 26 11.7 W 17 26 9 14 1017.7 1015.5 0.0
27/03:00pm 28.5 25.1 7.6 26 11.5 WNW 15 24 8 13 1017.7 1015.5 0.0
27/02:30pm 29.0 25.5 7.3 25 11.9 W 15 26 8 14 1017.9 1015.7 0.0
27/02:00pm 28.8 25.5 8.1 27 11.5 W 15 24 8 13 1018.1 1015.9 0.0
27/01:30pm 28.5 25.2 7.9 27 11.4 W 15 24 8 13 1018.4 1016.2 0.0
27/01:00pm 28.3 24.9 7.5 27 11.4 W 15 22 8 12 1018.8 1016.6 0.0
27/12:30pm 28.0 23.6 6.4 25 11.6 WNW 19 32 10 17 1019.1 1017.0 0.0
27/12:00pm 28.0 25.6 9.9 32 10.3 WNW 13 20 7 11 1019.6 1017.4 0.0
27/11:30am 27.1 25.0 9.8 33 9.8 WNW 11 22 6 12 1020.0 1017.8 0.0
27/11:00am 26.5 25.1 10.8 37 9.0 W 9 13 5 7 1020.4 1018.2 0.0
27/10:30am 25.6 25.3 10.0 37 8.8 SW 2 13 1 7 1020.8 1018.6 0.0
27/10:00am 25.1 25.0 9.3 36 8.8 CALM 0 0 0 0 1021.0 1018.9 0.0
27/09:30am 21.8 24.3 17.2 75 2.9 CALM 0 0 0 0 1021.1 1019.0 0.0
27/09:00am 19.7 22.6 18.3 92 0.9 CALM 0 0 0 0 1021.1 1019.0 11.4
27/08:30am 18.1 20.8 17.8 98 0.2 CALM 0 0 0 0 1021.0 1018.9 11.4
27/08:00am 16.7 18.9 16.5 99 0.1 CALM 0 0 0 0 1021.0 1018.9 11.4
27/07:30am 16.1 18.0 15.8 98 0.2 CALM 0 0 0 0 1020.7 1018.5 11.4
27/07:00am 15.4 17.1 15.2 99 0.1 CALM 0 0 0 0 1020.4 1018.2 11.4
27/06:30am 14.9 16.5 14.9 100 0.0 CALM 0 0 0 0 1020.1 1017.9 11.2
27/06:00am 15.4 17.2 15.4 100 0.0 CALM 0 0 0 0 1019.8 1017.6 11.2
27/05:30am 15.6 17.4 15.6 100 0.0 CALM 0 0 0 0 1019.3 1017.2 11.2
27/05:00am 15.6 17.4 15.4 99 0.1 CALM 0 0 0 0 1019.0 1016.9 11.2
27/04:30am 16.0 16.3 16.0 100 0.0 NE 9 11 5 6 1018.7 1016.5 11.2
27/04:00am 16.6 18.7 16.3 98 0.2 CALM 0 0 0 0 1018.5 1016.3 11.2
27/03:30am 16.8 19.0 16.6 99 0.1 CALM 0 0 0 0 1018.4 1016.2 11.2
27/03:00am 16.9 19.2 16.7 99 0.1 CALM 0 0 0 0 1018.4 1016.2 11.2
27/02:30am 17.6 20.2 17.4 99 0.1 CALM 0 0 0 0 1018.5 1016.3 11.2
27/02:00am 17.6 20.1 17.3 98 0.2 CALM 0 0 0 0 1018.7 1016.5 11.2
27/01:30am 17.6 20.0 17.1 97 0.3 CALM 0 0 0 0 1018.9 1016.7 11.2
27/01:00am 17.8 20.2 17.1 96 0.4 CALM 0 0 0 0 1019.2 1017.1 11.2
27/12:30am 18.1 19.4 17.0 93 0.7 NE 6 7 3 4 1019.3 1017.2 11.2
27/12:00am 18.6 21.5 18.3 98 0.2 CALM 0 0 0 0 1019.2 1017.1 11.2
 
Date/Time
EST
Tmp

°C
App
Tmp
°C
Dew
Point
°C
Rel
Hum
%
Delta-T

°C
Wind Press
QNH
hPa
Press
MSL
hPa
Rain
since
9 am
mm
Dir
 
Spd
km/h
Gust
km/h
Spd
kts
Gust
kts
26/11:30pm 19.3 22.5 18.8 97 0.3 CALM 0 0 0 0 1019.3 1017.2 11.2
26/11:00pm 18.9 21.9 18.4 97 0.3 CALM 0 0 0 0 1019.3 1017.2 11.2
26/10:30pm 19.6 22.5 19.0 96 0.4 ESE 2 7 1 4 1019.6 1017.4 11.2
26/10:00pm 20.0 23.4 19.4 96 0.4 CALM 0 0 0 0 1019.7 1017.5 11.2
26/09:30pm 20.1 23.6 19.5 96 0.4 CALM 0 0 0 0 1019.9 1017.7 11.2
26/09:00pm 20.6 24.1 19.5 93 0.7 CALM 0 0 0 0 1019.8 1017.6 11.2
26/08:30pm 20.9 24.5 19.8 93 0.7 CALM 0 0 0 0 1019.6 1017.4 11.2
26/08:00pm 21.2 25.0 20.1 93 0.7 CALM 0 0 0 0 1019.7 1017.5 11.2
26/07:30pm 20.8 24.5 19.9 95 0.6 CALM 0 0 0 0 1019.0 1016.9 11.2
26/07:00pm 21.3 25.0 19.9 92 0.9 CALM 0 0 0 0 1018.7 1016.5 11.2
26/06:30pm 21.8 24.5 20.3 91 1.0 SSE 6 9 3 5 1018.0 1015.8 11.2
26/06:00pm 22.3 24.5 19.7 85 1.7 ESE 7 11 4 6 1017.9 1015.7 11.2
26/05:30pm 22.4 24.9 20.3 88 1.4 ENE 7 13 4 7 1017.5 1015.3 11.2
26/05:00pm 23.0 22.6 19.3 79 2.4 N 20 26 11 14 1016.8 1014.6 11.2
26/04:30pm 21.2 19.9 19.0 87 1.4 S 24 59 13 32 1016.7 1014.5 10.4
26/04:19pm 21.2 19.7 19.5 90 1.1 WNW 26 54 14 29 1017.3 1015.1 1.8
26/04:18pm 22.4 21.3 19.5 84 1.9 WNW 24 41 13 22 1016.9 1014.7 0.2
26/04:00pm 27.7 27.8 20.4 64 4.9 N 20 26 11 14 1015.4 1013.2 0.0
26/03:30pm 30.2 31.8 19.9 54 6.9 NW 11 17 6 9 1015.6 1013.4 0.0
26/03:00pm 29.5 30.9 19.6 55 6.6 WNW 11 19 6 10 1016.0 1013.8 0.0
26/02:30pm 29.7 31.3 20.0 56 6.5 W 11 17 6 9 1016.0 1013.8 0.0
26/02:00pm 30.5 31.5 19.4 51 7.4 W 13 24 7 13 1016.1 1013.9 0.0
26/01:30pm 29.7 32.0 20.7 58 6.1 WNW 9 17 5 9 1016.7 1014.5 0.0
26/01:00pm 30.0 31.8 20.3 56 6.5 WNW 11 17 6 9 1017.1 1015.0 0.0
26/12:30pm 29.4 33.1 21.5 62 5.4 W 4 9 2 5 1017.8 1015.6 0.0
26/12:00pm 28.2 31.2 20.9 64 4.9 WNW 6 11 3 6 1018.3 1016.1 0.0
26/11:30am 29.0 32.8 21.7 64 5.0 NW 4 9 2 5 1018.7 1016.5 0.0

Latest Capital City Observations: Canberra | Sydney | Melbourne | Brisbane | Adelaide | Perth | Hobart | Darwin

Other Formats:

Comma delimited format used in spreadsheet applications
http://www.bom.gov.au/fwo/IDQ60901/IDQ60901.94555.axf

JavaScript Object Notation format (JSON) in row-major order
http://www.bom.gov.au/fwo/IDQ60901/IDQ60901.94555.json